Time;durP1;ratioP1;P1;durP2;ratioP2;P2;SDS_P1;SDS_P2;PMS_P1;PMS_P2;Temp;Humidity;BMP_temperature;BMP_pressure;BME280_temperature;BME280_humidity;BME280_pressure;Samples;Min_cycle;Max_cycle;Signal;HPM_P1;HPM_P2
2022/11/18 00:01:15;;;;;;;;;;;;;;;12.13;97.45;99880.55;1909093;75;20175;-56
2022/11/18 00:03:43;;;;;;;;;;;;;;;12.18;97.35;99857.86;1901858;75;20171;-50
2022/11/18 00:06:13;;;;;;;;;;;;;;;12.16;96.94;99866.34;1894035;76;20112;-57
2022/11/18 00:08:40;;;;;;;;;;;;;;;12.15;96.54;99834.27;1893978;76;20147;-57
2022/11/18 00:11:10;;;;;;;;;;;;;;;12.12;96.02;99861.70;1893914;76;20121;-59
2022/11/18 00:16:24;;;;;;;;;;;;;;;12.12;95.36;99863.51;1904184;75;20131;-58
2022/11/18 00:18:52;;;;;;;;;;;;;;;12.12;94.94;99866.98;1909002;75;20171;-56
2022/11/18 00:21:19;;;;;;;;;;;;;;;12.13;94.78;99846.23;1908928;75;20143;-55
2022/11/18 00:23:48;;;;;;;;;;;;;;;12.16;94.63;99854.46;1908877;75;20143;-57
2022/11/18 00:26:16;;;;;;;;;;;;;;;12.20;94.61;99856.45;1911189;75;20114;-52
2022/11/18 00:28:44;;;;;;;;;;;;;;;12.22;94.53;99869.92;1914997;75;20161;-55
2022/11/18 00:31:13;;;;;;;;;;;;;;;12.27;94.56;99874.94;1914953;75;20151;-48
2022/11/18 00:33:41;;;;;;;;;;;;;;;12.31;94.57;99873.33;1914996;75;20377;-59
2022/11/18 00:36:10;;;;;;;;;;;;;;;12.36;94.61;99873.91;1914877;75;20107;-47
2022/11/18 00:38:38;;;;;;;;;;;;;;;12.40;94.61;99875.05;1915006;75;20137;-52
2022/11/18 00:41:10;;;;;;;;;;;;;;;12.43;94.63;99883.64;1914998;75;20114;-54
2022/11/18 00:43:38;;;;;;;;;;;;;;;12.45;94.86;99876.91;1914991;75;20900;-55
2022/11/18 00:46:08;;;;;;;;;;;;;;;12.48;94.91;99864.86;1914968;75;20149;-56
2022/11/18 00:48:36;;;;;;;;;;;;;;;12.53;94.94;99886.08;1914889;75;20402;-50
2022/11/18 00:51:08;;;;;;;;;;;;;;;12.54;94.99;99882.96;1914991;75;20212;-48
2022/11/18 00:53:36;;;;;;;;;;;;;;;12.57;94.95;99877.50;1889360;75;20155;-53
2022/11/18 00:56:04;;;;;;;;;;;;;;;12.57;94.91;99884.11;1883866;76;20168;-57
2022/11/18 00:58:32;;;;;;;;;;;;;;;12.57;94.87;99869.58;1883643;76;20120;-48
2022/11/18 01:01:00;;;;;;;;;;;;;;;12.56;94.54;99849.42;1883781;76;20133;-55
2022/11/18 01:03:28;;;;;;;;;;;;;;;12.56;94.39;99848.09;1883718;76;20120;-51
2022/11/18 01:05:56;;;;;;;;;;;;;;;12.53;93.75;99874.20;1883776;76;20113;-50
2022/11/18 01:08:24;;;;;;;;;;;;;;;12.56;93.35;99865.27;1883719;76;20168;-55
2022/11/18 01:10:52;;;;;;;;;;;;;;;12.61;92.90;99860.52;1883852;76;20168;-50
2022/11/18 01:13:22;;;;;;;;;;;;;;;12.64;92.22;99891.19;1883782;76;20108;-46
2022/11/18 01:15:51;;;;;;;;;;;;;;;12.68;92.12;99861.84;1883583;76;20383;-54
2022/11/18 01:18:20;;;;;;;;;;;;;;;12.71;91.98;99852.90;1883754;76;20129;-50
2022/11/18 01:20:48;;;;;;;;;;;;;;;12.70;91.83;99881.08;1883719;76;20113;-61
2022/11/18 01:23:17;;;;;;;;;;;;;;;12.73;91.60;99872.14;1923959;75;20103;-59
2022/11/18 01:25:46;;;;;;;;;;;;;;;12.77;91.63;99879.41;1918339;75;20132;-58
2022/11/18 01:28:16;;;;;;;;;;;;;;;12.80;91.07;99884.48;1887283;76;20449;-58
2022/11/18 01:30:44;;;;;;;;;;;;;;;12.84;90.63;99891.30;1887421;76;20351;-56
2022/11/18 01:33:12;;;;;;;;;;;;;;;12.89;90.20;99856.16;1908240;74;20153;-52
2022/11/18 01:35:43;;;;;;;;;;;;;;;12.88;89.45;99835.98;1927029;74;20126;-49
2022/11/18 01:38:12;;;;;;;;;;;;;;;12.90;89.07;99871.92;1927108;74;20149;-51
2022/11/18 01:40:40;;;;;;;;;;;;;;;12.91;88.43;99880.69;1927015;74;20118;-52
2022/11/18 01:43:15;;;;;;;;;;;;;;;12.97;87.99;99855.23;1916220;74;20193;-50
2022/11/18 01:45:44;;;;;;;;;;;;;;;13.31;86.03;99843.84;1907565;75;20167;-52
2022/11/18 01:48:20;;;;;;;;;;;;;;;13.60;84.32;99867.55;1894022;75;20441;-52
2022/11/18 01:50:49;;;;;;;;;;;;;;;13.75;83.63;99875.79;1893141;76;20128;-58
2022/11/18 01:53:18;;;;;;;;;;;;;;;13.81;83.46;99866.11;1887359;76;20120;-57
2022/11/18 01:55:47;;;;;;;;;;;;;;;13.83;83.48;99885.41;1882363;76;20167;-61
2022/11/18 01:58:19;;;;;;;;;;;;;;;13.86;83.21;99890.48;1883829;76;20120;-56
2022/11/18 02:00:47;;;;;;;;;;;;;;;13.89;83.15;99878.86;1883664;76;20125;-53
2022/11/18 02:03:16;;;;;;;;;;;;;;;13.90;82.92;99876.57;1883820;76;20152;-56
2022/11/18 02:05:45;;;;;;;;;;;;;;;13.92;82.62;99873.83;1884098;75;20151;-58
2022/11/18 02:08:14;;;;;;;;;;;;;;;13.94;82.36;99891.77;1872025;75;20177;-54
2022/11/18 02:10:42;;;;;;;;;;;;;;;13.97;81.89;99903.48;1904964;74;20128;-58
2022/11/18 02:13:11;;;;;;;;;;;;;;;13.97;81.81;99900.36;1902181;74;20147;-64
2022/11/18 02:15:58;;;;;;;;;;;;;;;14.00;81.36;99916.50;1911700;74;20148;-60
2022/11/18 02:18:31;;;;;;;;;;;;;;;14.03;81.11;99911.84;1899996;74;20190;-63
2022/11/18 02:21:00;;;;;;;;;;;;;;;14.03;81.02;99901.75;1903380;74;20240;-62
2022/11/18 02:23:38;;;;;;;;;;;;;;;14.00;80.92;99915.17;1905122;74;20164;-61
2022/11/18 02:26:17;;;;;;;;;;;;;;;14.00;80.49;99911.20;1901156;74;20223;-68
2022/11/18 02:28:49;;;;;;;;;;;;;;;14.04;80.23;99927.28;1790134;80;20215;-63
2022/11/18 02:31:24;;;;;;;;;;;;;;;14.07;80.15;99941.16;1899305;74;20437;-63
2022/11/18 02:33:56;;;;;;;;;;;;;;;14.05;80.63;99938.22;1913799;74;20148;-65
2022/11/18 02:36:25;;;;;;;;;;;;;;;14.01;80.99;99956.58;1898384;74;20274;-63
2022/11/18 02:38:54;;;;;;;;;;;;;;;13.97;81.44;99964.36;1897458;74;20240;-60
2022/11/18 02:41:27;;;;;;;;;;;;;;;13.92;81.89;99967.77;1900290;74;20119;-62
2022/11/18 02:43:57;;;;;;;;;;;;;;;13.86;82.31;99956.63;1914631;74;20157;-64
2022/11/18 02:46:32;;;;;;;;;;;;;;;13.83;82.54;99972.73;1912251;74;20114;-62
2022/11/18 02:49:05;;;;;;;;;;;;;;;13.85;82.69;99997.30;1894835;75;20118;-60
2022/11/18 02:51:33;;;;;;;;;;;;;;;13.84;82.86;100002.20;1904054;75;20193;-61
2022/11/18 02:54:02;;;;;;;;;;;;;;;13.82;83.06;100008.06;1887294;76;20167;-60
2022/11/18 02:56:32;;;;;;;;;;;;;;;13.80;83.04;99999.86;1887439;76;20105;-60
2022/11/18 02:59:00;;;;;;;;;;;;;;;13.81;83.09;100026.20;1881385;76;20125;-60
2022/11/18 03:01:29;;;;;;;;;;;;;;;13.82;83.19;100022.62;1869206;76;20112;-60
2022/11/18 03:03:57;;;;;;;;;;;;;;;13.79;83.18;100025.93;1877415;76;20129;-61
2022/11/18 03:06:26;;;;;;;;;;;;;;;13.79;83.13;100028.09;1871789;76;20156;-59
2022/11/18 03:09:04;;;;;;;;;;;;;;;13.80;83.24;100025.00;1866152;76;20147;-59
2022/11/18 03:11:33;;;;;;;;;;;;;;;13.79;83.31;100041.80;1868655;76;20117;-54
2022/11/18 03:14:03;;;;;;;;;;;;;;;13.77;83.47;100048.52;1867490;76;20113;-56
2022/11/18 03:16:32;;;;;;;;;;;;;;;13.74;83.75;100043.44;1872891;76;20429;-61
2022/11/18 03:19:10;;;;;;;;;;;;;;;13.67;83.91;100052.70;1854630;76;20212;-60
2022/11/18 03:21:40;;;;;;;;;;;;;;;13.62;84.05;100052.14;1843898;78;20159;-54
2022/11/18 03:24:09;;;;;;;;;;;;;;;13.59;84.24;100062.90;1866494;75;20121;-58
2022/11/18 03:26:38;;;;;;;;;;;;;;;13.57;84.22;100060.83;1883103;75;20147;-61
2022/11/18 03:29:14;;;;;;;;;;;;;;;13.58;84.47;100070.48;1871572;75;20111;-62
2022/11/18 03:31:43;;;;;;;;;;;;;;;13.63;84.43;100078.95;1893853;75;20114;-62
2022/11/18 03:34:12;;;;;;;;;;;;;;;13.65;84.49;100087.67;1862131;75;20116;-55
2022/11/18 03:36:42;;;;;;;;;;;;;;;13.62;84.46;100088.69;1851904;77;20121;-51
2022/11/18 03:39:11;;;;;;;;;;;;;;;13.60;84.50;100097.67;1853871;77;20206;-52
2022/11/18 03:41:40;;;;;;;;;;;;;;;13.58;84.58;100102.22;1853811;77;20117;-54
2022/11/18 03:44:09;;;;;;;;;;;;;;;13.61;84.32;100090.10;1853957;77;20152;-51
2022/11/18 03:46:45;;;;;;;;;;;;;;;13.67;83.78;100106.94;1853892;77;20173;-52
2022/11/18 03:49:14;;;;;;;;;;;;;;;13.69;83.49;100126.20;1856842;76;20161;-58
2022/11/18 03:51:43;;;;;;;;;;;;;;;13.68;83.38;100120.08;1862703;77;20108;-58
2022/11/18 03:54:19;;;;;;;;;;;;;;;13.68;83.31;100126.69;1876411;76;20117;-59
2022/11/18 03:56:48;;;;;;;;;;;;;;;13.71;83.08;100144.16;1876300;76;20118;-48
2022/11/18 03:59:17;;;;;;;;;;;;;;;13.72;82.73;100141.87;1876367;76;20195;-49
2022/11/18 04:01:50;;;;;;;;;;;;;;;13.73;82.75;100149.36;1877762;76;20174;-52
2022/11/18 04:04:33;;;;;;;;;;;;;;;13.71;82.64;100156.91;1876543;76;20115;-57
2022/11/18 04:07:05;;;;;;;;;;;;;;;13.72;82.39;100164.36;1882996;76;20199;-55
2022/11/18 04:09:34;;;;;;;;;;;;;;;13.71;82.34;100158.70;1886892;76;20138;-59
2022/11/18 04:12:04;;;;;;;;;;;;;;;13.70;82.37;100171.09;1886310;76;20151;-58
2022/11/18 04:14:33;;;;;;;;;;;;;;;13.71;82.17;100186.48;1887169;76;20185;-58
2022/11/18 04:17:02;;;;;;;;;;;;;;;13.71;81.79;100171.94;1885865;75;20154;-59
2022/11/18 04:19:30;;;;;;;;;;;;;;;13.72;80.96;100194.78;1880099;75;20211;-61
2022/11/18 04:21:58;;;;;;;;;;;;;;;13.75;80.77;100199.06;1900306;75;20117;-60
2022/11/18 04:24:26;;;;;;;;;;;;;;;13.75;80.02;100219.75;1882940;75;20184;-58
2022/11/18 04:26:54;;;;;;;;;;;;;;;13.74;80.06;100236.58;1881862;75;20103;-58
2022/11/18 04:29:21;;;;;;;;;;;;;;;13.70;79.88;100222.69;1869225;76;20105;-58
2022/11/18 04:31:50;;;;;;;;;;;;;;;13.67;79.78;100229.95;1859113;77;20141;-58
2022/11/18 04:34:17;;;;;;;;;;;;;;;13.63;79.17;100237.67;1862691;77;20125;-58
2022/11/18 04:36:45;;;;;;;;;;;;;;;13.60;78.74;100244.48;1863424;77;20187;-58
2022/11/18 04:39:13;;;;;;;;;;;;;;;13.61;78.96;100247.50;1875983;76;20110;-63
2022/11/18 04:41:57;;;;;;;;;;;;;;;13.59;78.87;100250.23;1880977;76;20114;-64
2022/11/18 04:44:29;;;;;;;;;;;;;;;13.60;79.05;100266.97;1881108;76;20157;-61
2022/11/18 04:47:02;;;;;;;;;;;;;;;13.59;79.12;100272.71;1846820;78;20151;-61
2022/11/18 04:49:27;;;;;;;;;;;;;;;13.60;79.34;100280.20;1864910;76;20123;-61
2022/11/18 04:51:56;;;;;;;;;;;;;;;13.60;79.59;100291.63;1878616;76;20162;-61
2022/11/18 04:54:25;;;;;;;;;;;;;;;13.61;79.21;100297.76;1853834;77;20134;-53
2022/11/18 04:56:52;;;;;;;;;;;;;;;13.63;78.95;100306.45;1853761;77;20121;-53
2022/11/18 04:59:22;;;;;;;;;;;;;;;13.65;79.19;100306.77;1866908;75;20255;-54
2022/11/18 05:01:50;;;;;;;;;;;;;;;13.65;79.29;100323.12;1880312;75;20121;-56
2022/11/18 05:04:20;;;;;;;;;;;;;;;13.69;79.03;100333.89;1886568;75;20120;-59
2022/11/18 05:06:48;;;;;;;;;;;;;;;13.70;79.27;100347.48;1875579;75;20198;-59
2022/11/18 05:09:16;;;;;;;;;;;;;;;13.73;79.33;100355.25;1872406;75;20190;-52
2022/11/18 05:14:30;;;;;;;;;;;;;;;13.79;79.42;100367.27;1883024;75;20284;-58
2022/11/18 05:16:58;;;;;;;;;;;;;;;13.82;79.53;100375.05;1883461;75;20270;-60
2022/11/18 05:19:26;;;;;;;;;;;;;;;13.84;79.59;100381.94;1895264;75;20366;-61
2022/11/18 05:21:54;;;;;;;;;;;;;;;13.87;79.62;100383.09;1885921;75;20118;-61
2022/11/18 05:24:26;;;;;;;;;;;;;;;13.89;79.63;100397.08;1878550;75;20193;-59
2022/11/18 05:26:51;;;;;;;;;;;;;;;13.89;79.51;100393.11;1874124;75;20196;-55
2022/11/18 05:29:20;;;;;;;;;;;;;;;13.91;79.47;100403.62;1880195;75;20221;-57
2022/11/18 05:31:48;;;;;;;;;;;;;;;13.96;79.53;100400.23;1885515;75;20149;-56
2022/11/18 05:34:16;;;;;;;;;;;;;;;14.01;79.55;100405.25;1892576;75;20213;-58
2022/11/18 05:36:44;;;;;;;;;;;;;;;14.08;79.52;100411.89;1876810;75;20215;-58
2022/11/18 05:39:12;;;;;;;;;;;;;;;14.17;79.43;100413.15;1882002;75;20267;-60
2022/11/18 05:44:25;;;;;;;;;;;;;;;14.33;79.24;100428.95;1891278;75;20148;-62
2022/11/18 05:46:53;;;;;;;;;;;;;;;14.56;79.09;100431.56;1888209;75;20241;-62
2022/11/18 05:49:21;;;;;;;;;;;;;;;14.72;78.78;100439.00;1887104;75;20225;-62
2022/11/18 05:51:49;;;;;;;;;;;;;;;14.75;78.45;100440.11;1887288;75;20410;-62
2022/11/18 05:54:18;;;;;;;;;;;;;;;14.78;78.32;100450.53;1879581;75;20158;-63
2022/11/18 05:56:46;;;;;;;;;;;;;;;14.82;78.02;100458.67;1884532;75;20212;-62
2022/11/18 05:59:14;;;;;;;;;;;;;;;14.69;77.91;100467.00;1883383;75;20241;-62
2022/11/18 06:01:47;;;;;;;;;;;;;;;14.54;77.45;100471.39;1885084;74;20208;-61
2022/11/18 06:04:19;;;;;;;;;;;;;;;14.52;77.81;100479.91;1876025;75;20115;-62
2022/11/18 06:06:48;;;;;;;;;;;;;;;14.54;77.98;100480.66;1876410;75;20159;-61
2022/11/18 06:09:18;;;;;;;;;;;;;;;14.50;77.66;100487.09;1878603;75;20142;-61
2022/11/18 06:11:50;;;;;;;;;;;;;;;14.46;78.03;100493.05;1875447;75;20267;-62
2022/11/18 06:14:19;;;;;;;;;;;;;;;14.46;78.15;100500.16;1877733;75;20259;-62
2022/11/18 06:16:51;;;;;;;;;;;;;;;14.47;78.20;100508.46;1875974;75;20235;-62
2022/11/18 06:19:18;;;;;;;;;;;;;;;14.50;78.11;100509.61;1869870;75;20275;-62
2022/11/18 06:21:47;;;;;;;;;;;;;;;14.57;78.17;100518.03;1874533;75;20279;-61
2022/11/18 06:24:17;;;;;;;;;;;;;;;14.66;78.17;100519.72;1888662;75;20165;-65
2022/11/18 06:26:46;;;;;;;;;;;;;;;14.76;78.06;100520.02;1887545;75;20285;-66
2022/11/18 06:29:15;;;;;;;;;;;;;;;14.87;77.85;100518.05;1876738;75;20293;-65
2022/11/18 06:31:47;;;;;;;;;;;;;;;14.99;77.67;100519.09;1890885;75;20250;-63
2022/11/18 06:34:15;;;;;;;;;;;;;;;15.08;77.64;100529.13;1882631;75;20115;-63
2022/11/18 06:36:42;;;;;;;;;;;;;;;15.22;77.55;100531.80;1895466;75;20114;-63
2022/11/18 06:39:10;;;;;;;;;;;;;;;15.23;77.37;100543.25;1895674;75;20257;-62
2022/11/18 06:41:39;;;;;;;;;;;;;;;15.12;77.31;100539.08;1883697;75;20255;-62
2022/11/18 06:44:13;;;;;;;;;;;;;;;15.04;77.41;100540.39;1881774;75;20121;-62
2022/11/18 06:46:57;;;;;;;;;;;;;;;14.99;77.57;100541.63;1879536;75;20255;-63
2022/11/18 06:49:25;;;;;;;;;;;;;;;14.84;77.62;100540.75;1884989;75;20266;-62
2022/11/18 06:51:53;;;;;;;;;;;;;;;14.78;77.62;100539.80;1885290;75;20121;-62
2022/11/18 06:54:26;;;;;;;;;;;;;;;15.00;77.47;100549.49;1877522;75;20247;-62
2022/11/18 06:56:51;;;;;;;;;;;;;;;16.24;76.25;100544.43;1885862;75;20235;-61
2022/11/18 06:59:22;;;;;;;;;;;;;;;17.10;75.06;100545.30;1885555;75;20192;-59
2022/11/18 07:01:48;;;;;;;;;;;;;;;17.43;74.29;100537.22;1876661;75;20168;-59
2022/11/18 07:04:16;;;;;;;;;;;;;;;17.40;73.92;100536.13;1892237;75;20345;-58
2022/11/18 07:06:46;;;;;;;;;;;;;;;17.70;73.41;100534.39;1872185;75;20280;-58
2022/11/18 07:09:13;;;;;;;;;;;;;;;18.17;72.45;100530.56;1880259;75;20113;-59
2022/11/18 07:11:41;;;;;;;;;;;;;;;18.62;72.04;100536.93;1878410;75;20534;-61
2022/11/18 07:14:09;;;;;;;;;;;;;;;19.18;71.38;100546.91;1878594;75;20253;-62
2022/11/18 07:16:37;;;;;;;;;;;;;;;19.97;70.43;100553.53;1887621;75;20162;-59
2022/11/18 07:19:11;;;;;;;;;;;;;;;21.04;68.27;100552.22;1872833;75;20120;-59
2022/11/18 07:21:41;;;;;;;;;;;;;;;21.32;67.44;100549.83;1881268;75;20374;-58
2022/11/18 07:24:10;;;;;;;;;;;;;;;22.23;65.55;100554.70;1888832;75;20207;-60
2022/11/18 07:26:38;;;;;;;;;;;;;;;22.91;64.71;100560.55;1891477;75;20190;-60
2022/11/18 07:29:06;;;;;;;;;;;;;;;23.35;64.51;100571.63;1889040;75;20243;-59
2022/11/18 07:31:37;;;;;;;;;;;;;;;24.38;63.63;100560.23;1885098;75;20186;-59
2022/11/18 07:34:05;;;;;;;;;;;;;;;25.28;62.22;100562.78;1887630;75;20170;-58
2022/11/18 07:36:32;;;;;;;;;;;;;;;26.07;60.45;100576.11;1883791;75;20220;-58
2022/11/18 07:39:01;;;;;;;;;;;;;;;26.37;59.72;100586.78;1891207;75;20119;-58
2022/11/18 07:41:29;;;;;;;;;;;;;;;26.42;59.56;100596.58;1876536;75;20152;-58
2022/11/18 07:43:58;;;;;;;;;;;;;;;25.45;61.05;100596.56;1879483;75;20209;-58
2022/11/18 07:46:33;;;;;;;;;;;;;;;24.50;61.63;100599.86;1875173;75;20117;-60
2022/11/18 07:49:02;;;;;;;;;;;;;;;24.22;61.73;100606.65;1886033;75;20105;-59
2022/11/18 07:51:31;;;;;;;;;;;;;;;23.12;62.41;100617.62;1882645;75;20526;-59
2022/11/18 07:54:00;;;;;;;;;;;;;;;23.07;62.69;100620.39;1877158;75;20767;-59
2022/11/18 07:56:28;;;;;;;;;;;;;;;23.16;62.07;100628.08;1884669;75;20102;-59
2022/11/18 07:58:58;;;;;;;;;;;;;;;22.41;63.30;100627.78;1883174;75;20247;-60
2022/11/18 08:01:31;;;;;;;;;;;;;;;22.58;62.84;100627.11;1880470;74;20265;-61
2022/11/18 08:03:59;;;;;;;;;;;;;;;24.31;58.64;100626.42;1879141;75;20174;-52
2022/11/18 08:06:27;;;;;;;;;;;;;;;25.08;58.04;100625.94;1877546;75;20152;-53
2022/11/18 08:08:55;;;;;;;;;;;;;;;24.23;59.59;100632.53;1873538;75;20120;-50
2022/11/18 08:11:23;;;;;;;;;;;;;;;23.16;60.74;100638.83;1891403;75;20115;-53
2022/11/18 08:13:51;;;;;;;;;;;;;;;22.13;62.28;100629.77;1879767;75;20129;-51
2022/11/18 08:16:20;;;;;;;;;;;;;;;21.31;63.15;100639.20;1876808;75;20163;-53
2022/11/18 08:18:49;;;;;;;;;;;;;;;20.25;62.92;100644.36;1877053;75;20107;-50
2022/11/18 08:21:17;;;;;;;;;;;;;;;19.45;63.88;100640.47;1889142;75;20228;-49
2022/11/18 08:23:52;;;;;;;;;;;;;;;18.99;64.32;100637.34;1876338;75;20217;-48
2022/11/18 08:26:20;;;;;;;;;;;;;;;18.47;65.23;100630.92;1877174;75;20268;-48
2022/11/18 08:28:49;;;;;;;;;;;;;;;18.51;65.41;100635.55;1862183;75;20121;-48
2022/11/18 08:31:18;;;;;;;;;;;;;;;18.54;62.85;100641.16;1872701;75;20188;-48
2022/11/18 08:33:46;;;;;;;;;;;;;;;18.40;62.93;100652.33;1859221;77;20109;-48
2022/11/18 08:36:22;;;;;;;;;;;;;;;20.47;59.33;100646.59;1884240;75;20117;-48
2022/11/18 08:38:50;;;;;;;;;;;;;;;22.49;54.57;100646.73;1883803;75;20514;-50
2022/11/18 08:41:19;;;;;;;;;;;;;;;23.64;50.23;100640.02;1880924;75;20189;-55
2022/11/18 08:43:47;;;;;;;;;;;;;;;24.69;49.58;100641.11;1884764;75;20494;-58
2022/11/18 08:46:14;;;;;;;;;;;;;;;25.67;49.08;100643.69;1876125;75;20235;-56
2022/11/18 08:48:42;;;;;;;;;;;;;;;25.09;50.79;100645.99;1881808;75;20313;-53
2022/11/18 08:51:14;;;;;;;;;;;;;;;24.22;52.29;100651.03;1878577;75;20215;-48
2022/11/18 08:53:42;;;;;;;;;;;;;;;23.87;52.81;100655.33;1883653;75;20497;-48
2022/11/18 08:56:15;;;;;;;;;;;;;;;23.15;54.92;100651.89;1872212;75;20230;-53
2022/11/18 08:58:43;;;;;;;;;;;;;;;22.31;53.92;100651.41;1882126;75;20480;-52
2022/11/18 09:01:11;;;;;;;;;;;;;;;21.39;55.46;100646.06;1878026;75;20231;-55
2022/11/18 09:03:39;;;;;;;;;;;;;;;20.86;56.61;100649.67;1898210;74;20244;-53
2022/11/18 09:06:14;;;;;;;;;;;;;;;20.50;57.68;100652.20;1909717;74;20122;-57
2022/11/18 09:08:43;;;;;;;;;;;;;;;22.23;54.99;100639.17;1905740;74;20236;-56
2022/11/18 09:11:18;;;;;;;;;;;;;;;23.86;48.95;100653.61;1906564;74;20201;-56
2022/11/18 09:13:47;;;;;;;;;;;;;;;24.71;46.28;100640.45;1908530;74;20755;-49
2022/11/18 09:16:15;;;;;;;;;;;;;;;25.77;44.54;100640.38;1904883;74;20409;-56
2022/11/18 09:18:42;;;;;;;;;;;;;;;25.99;44.59;100637.64;1909722;74;20250;-58
2022/11/18 09:21:13;;;;;;;;;;;;;;;25.81;44.13;100637.70;1910277;74;20536;-60
2022/11/18 09:23:41;;;;;;;;;;;;;;;24.35;47.60;100649.84;1893826;74;20201;-50
2022/11/18 09:26:11;;;;;;;;;;;;;;;23.58;46.14;100647.84;1897731;74;20244;-49
2022/11/18 09:28:39;;;;;;;;;;;;;;;22.12;47.05;100639.29;1892028;74;20120;-49
2022/11/18 09:31:08;;;;;;;;;;;;;;;20.73;49.37;100650.31;1892471;76;20139;-49
2022/11/18 09:33:37;;;;;;;;;;;;;;;20.92;50.72;100648.30;1894383;74;20203;-50
2022/11/18 09:36:05;;;;;;;;;;;;;;;22.80;47.77;100639.91;1893950;76;20132;-52
2022/11/18 09:38:33;;;;;;;;;;;;;;;24.36;45.14;100648.82;1893994;76;20120;-50
2022/11/18 09:41:03;;;;;;;;;;;;;;;25.29;43.43;100638.59;1894055;76;20171;-50
2022/11/18 09:43:32;;;;;;;;;;;;;;;25.38;42.32;100639.50;1894027;76;20151;-51
2022/11/18 09:46:01;;;;;;;;;;;;;;;23.63;45.37;100644.22;1920807;74;20114;-52
2022/11/18 09:51:15;;;;;;;;;;;;;;;22.04;46.71;100641.79;1861959;77;20149;-48
2022/11/18 09:53:44;;;;;;;;;;;;;;;22.31;46.78;100652.75;1880000;76;20148;-49
2022/11/18 09:56:13;;;;;;;;;;;;;;;21.32;47.94;100656.94;1892107;74;20375;-57
2022/11/18 09:58:42;;;;;;;;;;;;;;;20.50;49.61;100658.39;1892407;76;20116;-58
2022/11/18 10:01:12;;;;;;;;;;;;;;;20.65;49.78;100656.30;1892470;76;20567;-59
2022/11/18 10:03:40;;;;;;;;;;;;;;;20.10;51.21;100660.78;1876762;76;20108;-58
2022/11/18 10:06:31;;;;;;;;;;;;;;;19.65;52.29;100664.29;1866378;75;20203;-57
2022/11/18 10:09:05;;;;;;;;;;;;;;;19.41;52.61;100667.05;1862905;77;20112;-58
2022/11/18 10:11:34;;;;;;;;;;;;;;;19.60;52.85;100667.30;1862917;76;20493;-58
2022/11/18 10:14:11;;;;;;;;;;;;;;;19.19;53.32;100674.03;1861899;76;20116;-61
2022/11/18 10:16:45;;;;;;;;;;;;;;;18.51;53.44;100673.72;1882469;75;20143;-57
2022/11/18 10:19:11;;;;;;;;;;;;;;;17.96;54.15;100679.03;1913213;75;20111;-53
2022/11/18 10:21:44;;;;;;;;;;;;;;;17.76;55.29;100677.74;1914400;75;20153;-59
2022/11/18 10:24:13;;;;;;;;;;;;;;;17.63;55.39;100679.11;1913226;75;20201;-59
2022/11/18 10:26:41;;;;;;;;;;;;;;;17.68;55.56;100679.62;1850453;77;20111;-59
2022/11/18 10:29:16;;;;;;;;;;;;;;;18.43;53.42;100694.77;1850489;78;20144;-58
2022/11/18 10:32:04;;;;;;;;;;;;;;;18.95;52.80;100687.91;1898249;76;20143;-57
2022/11/18 10:34:33;;;;;;;;;;;;;;;20.47;49.26;100692.56;1898217;76;20470;-58
2022/11/18 10:37:03;;;;;;;;;;;;;;;21.15;47.01;100677.97;1891567;76;20416;-59
2022/11/18 10:39:31;;;;;;;;;;;;;;;21.40;46.35;100681.25;1891395;76;20110;-59
2022/11/18 10:42:03;;;;;;;;;;;;;;;21.95;45.51;100687.20;1891476;76;20153;-61
2022/11/18 10:44:35;;;;;;;;;;;;;;;22.25;45.15;100690.83;1891420;76;20195;-63
2022/11/18 10:47:16;;;;;;;;;;;;;;;21.96;44.44;100702.29;1896694;76;20459;-63
2022/11/18 10:49:44;;;;;;;;;;;;;;;21.69;45.49;100691.30;1898280;75;20115;-58
2022/11/18 10:52:13;;;;;;;;;;;;;;;22.09;45.31;100687.81;1896887;76;20111;-59
2022/11/18 10:54:42;;;;;;;;;;;;;;;22.42;44.73;100687.17;1891484;76;20161;-58
2022/11/18 10:57:24;;;;;;;;;;;;;;;22.06;45.93;100698.80;1895560;76;20114;-60
2022/11/18 10:59:53;;;;;;;;;;;;;;;22.22;46.06;100691.09;1898228;76;20173;-60
2022/11/18 11:02:22;;;;;;;;;;;;;;;22.34;45.03;100689.20;1898317;76;20141;-60
2022/11/18 11:04:51;;;;;;;;;;;;;;;22.65;44.72;100703.38;1897812;75;20118;-61
2022/11/18 11:07:33;;;;;;;;;;;;;;;22.86;44.35;100696.53;1894883;76;20107;-60
2022/11/18 11:10:11;;;;;;;;;;;;;;;23.28;43.91;100704.33;1891518;76;20423;-61
2022/11/18 11:12:36;;;;;;;;;;;;;;;23.24;43.80;100695.34;1891139;76;20114;-59
2022/11/18 11:15:06;;;;;;;;;;;;;;;23.09;44.66;100701.17;1891366;76;20141;-53
2022/11/18 11:17:35;;;;;;;;;;;;;;;23.21;44.09;100717.14;1894017;76;20110;-53
2022/11/18 11:20:20;;;;;;;;;;;;;;;21.85;44.56;100710.42;1898201;76;20110;-55
2022/11/18 11:22:48;;;;;;;;;;;;;;;21.38;45.79;100716.20;1898233;75;20141;-54
2022/11/18 11:25:17;;;;;;;;;;;;;;;21.16;46.35;100705.62;1896375;76;20152;-59
2022/11/18 11:28:05;;;;;;;;;;;;;;;20.82;46.98;100726.68;1894757;76;20103;-57
2022/11/18 11:30:34;;;;;;;;;;;;;;;20.63;47.95;100721.13;1897616;74;20149;-61
2022/11/18 11:33:21;;;;;;;;;;;;;;;20.48;48.52;100724.53;1896665;75;20233;-59
2022/11/18 11:36:04;;;;;;;;;;;;;;;20.32;49.24;100730.26;1961931;73;20390;-57
2022/11/18 11:38:52;;;;;;;;;;;;;;;20.16;49.49;100736.00;1919859;74;20120;-60
2022/11/18 11:41:39;;;;;;;;;;;;;;;19.89;49.74;100732.83;1921042;74;20120;-61
2022/11/18 11:44:14;;;;;;;;;;;;;;;19.64;50.48;100736.03;1920994;75;20136;-60
2022/11/18 11:47:45;;;;;;;;;;;;;;;19.17;51.25;100733.84;1920998;75;20117;-61
2022/11/18 11:49:18;;;;;;;;;;;;;;;18.80;52.19;100753.41;1917773;75;20143;-61
2022/11/18 11:51:50;;;;;;;;;;;;;;;18.65;52.67;100750.54;1920511;75;20136;-60
2022/11/18 11:54:19;;;;;;;;;;;;;;;18.35;53.12;100764.25;1888386;76;20115;-60
2022/11/18 11:56:49;;;;;;;;;;;;;;;18.37;53.50;100768.53;1888399;74;20232;-60
2022/11/18 11:59:27;;;;;;;;;;;;;;;18.63;53.43;100765.80;1888339;76;20114;-61
2022/11/18 12:02:22;;;;;;;;;;;;;;;18.64;53.62;100774.16;1888268;76;20145;-61
2022/11/18 12:05:00;;;;;;;;;;;;;;;18.42;54.19;100778.36;1887768;75;20143;-59
2022/11/18 12:07:35;;;;;;;;;;;;;;;18.13;54.80;100775.95;1888105;75;20145;-61
2022/11/18 12:10:07;;;;;;;;;;;;;;;17.99;55.31;100788.55;1888193;76;20153;-58
2022/11/18 12:12:50;;;;;;;;;;;;;;;17.77;55.62;100774.49;1867936;76;20888;-62
2022/11/18 12:18:10;;;;;;;;;;;;;;;;;;;;;
2022/11/18 12:20:39;;;;;;;;;;;;;;;17.31;56.94;100796.59;1890912;75;20120;-60
2022/11/18 12:23:17;;;;;;;;;;;;;;;17.30;57.20;100803.34;1895798;74;20383;-61
2022/11/18 12:25:49;;;;;;;;;;;;;;;17.21;57.50;100805.28;1907134;75;20118;-61
2022/11/18 12:28:28;;;;;;;;;;;;;;;16.97;58.14;100806.80;1888302;76;20141;-60
2022/11/18 12:31:00;;;;;;;;;;;;;;;16.80;58.95;100820.28;1888291;76;20098;-55
2022/11/18 12:33:28;;;;;;;;;;;;;;;16.86;59.02;100823.92;1868826;76;20118;-60
2022/11/18 12:35:56;;;;;;;;;;;;;;;16.82;59.69;100823.72;1886089;76;20145;-59
2022/11/18 12:38:28;;;;;;;;;;;;;;;16.69;60.00;100830.75;1916782;75;20136;-60
2022/11/18 12:43:45;;;;;;;;;;;;;;;16.53;60.33;100827.73;1918091;74;20379;-59
2022/11/18 12:43:49;;;;;;;;;;;;;;;16.32;61.55;100835.25;1918739;74;20426;-57
2022/11/18 12:46:28;;;;;;;;;;;;;;;16.10;62.02;100832.17;1917345;75;20117;-61
2022/11/18 12:48:57;;;;;;;;;;;;;;;15.97;62.42;100832.05;1904623;74;20115;-60
2022/11/18 12:51:27;;;;;;;;;;;;;;;15.91;62.72;100839.92;1885889;75;20459;-59
2022/11/18 12:53:58;;;;;;;;;;;;;;;15.89;62.90;100832.52;1896133;75;20113;-57
2022/11/18 12:56:27;;;;;;;;;;;;;;;15.85;63.03;100838.13;1917447;75;20139;-63
2022/11/18 12:58:57;;;;;;;;;;;;;;;15.83;62.93;100844.84;1911159;75;20113;-63
2022/11/18 13:01:30;;;;;;;;;;;;;;;15.82;62.83;100850.64;1905053;75;20108;-61
2022/11/18 13:04:11;;;;;;;;;;;;;;;15.85;62.70;100860.21;1917402;75;20113;-60
2022/11/18 13:06:39;;;;;;;;;;;;;;;15.87;62.92;100864.11;1884811;76;20162;-57
2022/11/18 13:09:18;;;;;;;;;;;;;;;15.86;63.08;100862.39;1891459;75;20117;-60
2022/11/18 13:12:02;;;;;;;;;;;;;;;15.81;63.36;100876.80;1907082;75;20383;-60